Date,TemperatureHighF,TemperatureAvgF,TemperatureLowF,DewpointHighF,DewpointAvgF,DewpointLowF,HumidityHigh,HumidityAvg,HumidityLow,PressureMaxIn,PressureMinIn,WindSpeedMaxMPH,WindSpeedAvgMPH,GustSpeedMaxMPH,PrecipitationSumIn
2013-11-1,83.2,75.4,71.0,77.0,72.9,70.1,99,92,79,29.46,29.35,9,3,28,0.68
2013-11-2,83.3,76.1,70.6,77.7,74.3,70.3,99,94,81,29.47,29.36,7,2,13,0.31
2013-11-3,79.5,75.6,72.2,77.1,74.2,71.6,98,95,87,29.46,29.37,7,3,18,0.65
2013-11-4,84.7,77.6,72.2,76.6,73.6,71.6,99,88,67,29.45,29.35,6,2,12,0.19
2013-11-5,83.5,76.4,71.5,77.0,74.0,70.9,99,93,76,29.44,29.35,7,1,14,0.53
2013-11-6,84.9,77.4,71.9,76.2,73.6,71.4,99,89,67,29.44,29.36,7,2,13,0.01
2013-11-7,85.1,77.6,70.8,76.1,73.2,70.2,99,87,65,29.44,29.35,7,2,13,0.01
2013-11-8,85.1,78.2,72.4,76.5,74.1,71.5,98,88,71,29.47,29.37,8,2,15,0.20
2013-11-9,84.9,78.0,72.0,77.0,74.3,71.4,99,89,73,29.52,29.42,8,2,16,0.22
2013-11-10,85.2,78.2,72.4,77.1,74.2,71.5,98,88,69,29.53,29.44,8,3,16,0.16
2013-11-11,84.6,79.1,72.8,76.9,74.7,71.9,98,87,74,29.55,29.47,8,4,18,0.02
2013-11-12,84.4,80.2,77.4,77.5,73.6,-99.9,92,85,76,29.52,29.42,11,5,22,0.04
2013-11-13,85.1,79.1,72.5,76.9,74.3,71.3,96,85,71,29.51,29.42,9,4,18,0.15
2013-11-14,85.1,77.6,70.5,76.1,73.1,69.9,98,87,70,29.54,29.42,7,2,15,0.01
2013-11-15,82.5,75.4,71.9,77.2,73.6,70.8,98,94,83,29.53,29.40,7,1,16,0.42
2013-11-16,84.6,77.5,71.6,76.5,73.5,71.3,99,88,71,29.48,29.37,5,2,11,0.01
2013-11-17,84.0,77.5,72.5,73.6,71.3,68.6,97,82,61,29.41,29.31,7,3,17,0.09
2013-11-18,83.4,75.5,70.1,74.4,70.5,68.2,98,86,62,29.37,29.26,8,2,18,0.12
2013-11-19,82.5,74.4,68.9,72.3,69.9,67.5,98,86,68,29.43,29.30,6,2,14,0.00
2013-11-20,83.4,75.6,66.7,73.0,70.4,65.8,98,85,66,29.52,29.40,7,2,14,0.00
2013-11-21,82.0,76.2,70.7,75.3,72.9,69.8,97,90,79,29.54,29.45,8,2,17,0.02
2013-11-22,82.6,75.6,70.8,74.3,72.2,69.6,98,90,71,29.50,29.39,5,2,12,0.12
2013-11-23,84.2,75.4,67.9,73.1,70.1,67.3,99,85,63,29.47,29.37,7,2,14,0.00
2013-11-24,83.6,74.9,68.2,75.7,71.7,67.3,98,90,73,29.48,29.39,7,2,15,0.12
2013-11-25,72.4,71.5,70.6,71.8,70.9,70.0,99,98,98,29.46,29.44,2,0,5,0.00